Time;durP1;ratioP1;P1;durP2;ratioP2;P2;SDS_P1;SDS_P2;PMS_P1;PMS_P2;Temp;Humidity;BMP_temperature;BMP_pressure;BME280_temperature;BME280_humidity;BME280_pressure;Samples;Min_cycle;Max_cycle;Signal;HPM_P1;HPM_P2
2021/10/04 00:02:11;;;;;;;81.88;10.88;;;;;;;;;;5065548;28;20103;-37
2021/10/04 00:04:38;;;;;;;86.57;12.32;;;;;;;;;;5062818;28;20052;-35
2021/10/04 00:07:05;;;;;;;85.45;10.65;;;;;;;;;;5062803;28;20696;-35
2021/10/04 00:09:32;;;;;;;90.18;11.30;;;;;;;;;;5066964;28;20088;-44
2021/10/04 00:11:59;;;;;;;99.50;12.13;;;;;;;;;;5061197;28;20100;-40
2021/10/04 00:14:27;;;;;;;78.85;12.68;;;;;;;;;;5070646;28;20013;-39
2021/10/04 00:16:54;;;;;;;116.85;13.52;;;;;;;;;;5068658;28;20111;-39
2021/10/04 00:19:21;;;;;;;100.90;13.50;;;;;;;;;;5061564;28;20021;-40
2021/10/04 00:21:48;;;;;;;108.90;13.38;;;;;;;;;;5065602;28;20070;-39
2021/10/04 00:24:16;;;;;;;99.25;13.50;;;;;;;;;;5065363;28;20557;-39
2021/10/04 00:26:43;;;;;;;103.07;12.82;;;;;;;;;;5062553;28;20415;-38
2021/10/04 00:29:10;;;;;;;122.35;15.93;;;;;;;;;;5060607;28;20044;-43
2021/10/04 00:31:37;;;;;;;120.32;15.25;;;;;;;;;;5068261;28;20040;-41
2021/10/04 00:34:04;;;;;;;118.35;15.95;;;;;;;;;;5060047;28;20028;-42
2021/10/04 00:36:32;;;;;;;131.93;15.18;;;;;;;;;;5067818;28;20032;-41
2021/10/04 00:38:59;;;;;;;112.63;17.88;;;;;;;;;;5065942;28;20392;-38
2021/10/04 00:41:26;;;;;;;121.22;18.65;;;;;;;;;;5064061;28;20151;-40
2021/10/04 00:43:53;;;;;;;110.10;17.00;;;;;;;;;;5067695;28;20028;-42
2021/10/04 00:46:20;;;;;;;130.30;18.92;;;;;;;;;;5067718;28;20009;-41
2021/10/04 00:48:48;;;;;;;113.70;18.95;;;;;;;;;;5065915;28;20020;-41
2021/10/04 00:51:16;;;;;;;121.70;20.80;;;;;;;;;;5061115;28;20025;-41
2021/10/04 00:53:43;;;;;;;120.57;19.88;;;;;;;;;;5060978;28;20063;-46
2021/10/04 00:56:10;;;;;;;126.78;17.88;;;;;;;;;;5063901;28;20025;-39
2021/10/04 00:58:38;;;;;;;116.55;20.30;;;;;;;;;;5046265;28;20029;-40
2021/10/04 01:01:05;;;;;;;115.72;19.40;;;;;;;;;;5067050;28;20555;-41
2021/10/04 01:03:32;;;;;;;115.95;18.88;;;;;;;;;;5049706;28;20183;-43
2021/10/04 01:05:59;;;;;;;118.88;20.13;;;;;;;;;;5069288;28;20036;-41
2021/10/04 01:08:26;;;;;;;121.35;18.45;;;;;;;;;;5068618;28;20040;-41
2021/10/04 01:10:53;;;;;;;110.88;16.70;;;;;;;;;;5068689;28;20029;-39
2021/10/04 01:13:20;;;;;;;116.20;19.17;;;;;;;;;;5065951;28;20075;-40
2021/10/04 01:15:47;;;;;;;105.90;17.48;;;;;;;;;;5069124;28;20016;-41
2021/10/04 01:18:14;;;;;;;118.82;18.08;;;;;;;;;;5060845;28;20487;-41
2021/10/04 01:20:42;;;;;;;92.68;17.02;;;;;;;;;;5049065;28;20024;-42
2021/10/04 01:23:09;;;;;;;98.32;17.55;;;;;;;;;;5061408;28;20112;-42
2021/10/04 01:25:36;;;;;;;118.28;17.05;;;;;;;;;;5060619;28;20065;-40
2021/10/04 01:28:04;;;;;;;110.68;18.65;;;;;;;;;;5065050;28;20016;-43
2021/10/04 01:30:32;;;;;;;94.65;17.92;;;;;;;;;;5064682;28;20063;-42
2021/10/04 01:32:59;;;;;;;99.45;17.80;;;;;;;;;;5052956;28;20393;-39
2021/10/04 01:35:26;;;;;;;100.93;16.75;;;;;;;;;;5064937;28;20021;-41
2021/10/04 01:37:53;;;;;;;93.72;16.52;;;;;;;;;;5065574;28;20349;-41
2021/10/04 01:40:20;;;;;;;102.07;17.27;;;;;;;;;;5065627;28;20502;-40
2021/10/04 01:42:48;;;;;;;86.03;14.70;;;;;;;;;;5067061;28;20063;-41
2021/10/04 01:45:18;;;;;;;96.38;16.98;;;;;;;;;;5065827;28;20017;-41
2021/10/04 01:47:45;;;;;;;95.10;16.13;;;;;;;;;;5057277;28;20472;-40
2021/10/04 01:50:13;;;;;;;87.90;16.17;;;;;;;;;;5196206;22;22207;-39
2021/10/04 01:52:40;;;;;;;84.05;14.35;;;;;;;;;;5060886;28;20044;-42
2021/10/04 01:55:08;;;;;;;90.15;16.02;;;;;;;;;;5062203;28;20434;-41
2021/10/04 01:57:35;;;;;;;90.07;15.80;;;;;;;;;;5065068;28;20054;-42
2021/10/04 02:00:02;;;;;;;91.60;15.20;;;;;;;;;;5069481;28;20035;-43
2021/10/04 02:02:32;;;;;;;80.53;15.18;;;;;;;;;;5063785;28;20058;-42
2021/10/04 02:04:59;;;;;;;83.18;13.52;;;;;;;;;;5062652;28;20100;-42
2021/10/04 02:07:26;;;;;;;86.88;16.02;;;;;;;;;;5059773;28;20032;-43
2021/10/04 02:09:53;;;;;;;79.38;14.65;;;;;;;;;;5061116;28;20520;-45
2021/10/04 02:12:20;;;;;;;91.15;14.80;;;;;;;;;;5062417;28;20029;-43
2021/10/04 02:14:47;;;;;;;86.50;15.18;;;;;;;;;;5059458;28;20028;-40
2021/10/04 02:17:14;;;;;;;62.55;14.05;;;;;;;;;;5060287;28;20032;-42
2021/10/04 02:19:41;;;;;;;77.07;13.52;;;;;;;;;;5057730;28;20056;-41
2021/10/04 02:22:08;;;;;;;81.55;15.15;;;;;;;;;;5066150;28;20020;-42
2021/10/04 02:24:35;;;;;;;91.55;15.40;;;;;;;;;;5064351;28;20106;-42
2021/10/04 02:27:02;;;;;;;70.35;14.68;;;;;;;;;;5058364;28;20468;-40
2021/10/04 02:29:29;;;;;;;99.88;14.68;;;;;;;;;;5070059;28;20033;-40
2021/10/04 02:31:56;;;;;;;87.43;14.13;;;;;;;;;;5071511;28;20105;-37
2021/10/04 02:34:23;;;;;;;83.47;14.68;;;;;;;;;;5071038;28;20471;-39
2021/10/04 02:36:50;;;;;;;83.57;15.40;;;;;;;;;;5072379;28;20032;-40
2021/10/04 02:39:17;;;;;;;90.35;14.23;;;;;;;;;;5068589;28;20024;-40
2021/10/04 02:41:44;;;;;;;69.95;13.00;;;;;;;;;;5070253;28;20436;-39
2021/10/04 02:44:11;;;;;;;76.45;13.23;;;;;;;;;;5054006;28;20086;-38
2021/10/04 02:46:38;;;;;;;80.43;13.05;;;;;;;;;;5069207;28;20090;-40
2021/10/04 02:49:05;;;;;;;62.95;12.60;;;;;;;;;;5071275;28;20021;-39
2021/10/04 02:51:32;;;;;;;78.78;12.65;;;;;;;;;;5071377;28;20105;-40
2021/10/04 02:53:59;;;;;;;75.63;12.85;;;;;;;;;;5071561;28;20059;-39
2021/10/04 02:56:26;;;;;;;66.20;12.43;;;;;;;;;;5071274;28;20086;-40
2021/10/04 02:58:53;;;;;;;62.08;12.98;;;;;;;;;;5048765;28;20032;-39
2021/10/04 03:01:20;;;;;;;68.35;12.23;;;;;;;;;;5059257;28;20341;-39
2021/10/04 03:03:47;;;;;;;70.03;12.77;;;;;;;;;;5067349;28;20111;-37
2021/10/04 03:06:14;;;;;;;62.78;12.07;;;;;;;;;;5068743;28;20028;-39
2021/10/04 03:08:42;;;;;;;54.65;10.90;;;;;;;;;;5070001;28;20044;-40
2021/10/04 03:11:09;;;;;;;69.00;11.45;;;;;;;;;;5070539;28;20033;-38
2021/10/04 03:13:36;;;;;;;61.28;11.93;;;;;;;;;;5070793;28;20056;-39
2021/10/04 03:16:03;;;;;;;48.05;10.63;;;;;;;;;;5066121;28;20069;-40
2021/10/04 03:18:30;;;;;;;69.07;11.70;;;;;;;;;;5071081;28;20111;-40
2021/10/04 03:20:57;;;;;;;63.38;11.85;;;;;;;;;;5070554;28;20157;-39
2021/10/04 03:23:24;;;;;;;59.22;11.35;;;;;;;;;;5071860;28;20044;-40
2021/10/04 03:25:51;;;;;;;49.50;10.18;;;;;;;;;;5071983;28;20028;-39
2021/10/04 03:28:18;;;;;;;50.13;9.73;;;;;;;;;;5071903;28;20476;-38
2021/10/04 03:30:45;;;;;;;49.17;11.02;;;;;;;;;;5071810;28;20028;-40
2021/10/04 03:33:12;;;;;;;48.45;9.88;;;;;;;;;;5072011;28;20036;-39
2021/10/04 03:35:39;;;;;;;45.38;10.27;;;;;;;;;;5071804;28;20048;-40
2021/10/04 03:38:06;;;;;;;56.60;9.98;;;;;;;;;;5071187;28;20031;-40
2021/10/04 03:40:33;;;;;;;48.28;10.32;;;;;;;;;;5071782;28;20020;-40
2021/10/04 03:43:01;;;;;;;45.08;8.82;;;;;;;;;;5072064;28;20103;-39
2021/10/04 03:45:28;;;;;;;40.53;9.48;;;;;;;;;;5071983;28;20016;-40
2021/10/04 03:47:55;;;;;;;46.75;10.02;;;;;;;;;;5072753;28;20052;-40
2021/10/04 03:50:22;;;;;;;46.70;8.90;;;;;;;;;;5075409;28;20036;-39
2021/10/04 03:52:49;;;;;;;40.83;10.52;;;;;;;;;;5075705;28;20024;-40
2021/10/04 03:55:16;;;;;;;31.45;8.55;;;;;;;;;;5075552;28;20031;-39
2021/10/04 03:57:44;;;;;;;47.13;8.90;;;;;;;;;;5075001;28;20040;-39
2021/10/04 04:00:13;;;;;;;40.85;8.57;;;;;;;;;;5075473;28;20414;-41
2021/10/04 04:02:40;;;;;;;37.38;8.70;;;;;;;;;;5075495;28;20225;-39
2021/10/04 04:05:07;;;;;;;38.58;9.43;;;;;;;;;;5075394;28;20021;-38
2021/10/04 04:07:35;;;;;;;40.92;7.93;;;;;;;;;;5075329;28;20022;-39
2021/10/04 04:10:02;;;;;;;31.60;8.98;;;;;;;;;;5074710;28;20418;-38
2021/10/04 04:12:29;;;;;;;39.47;9.15;;;;;;;;;;5074993;28;20036;-38
2021/10/04 04:14:56;;;;;;;33.83;7.82;;;;;;;;;;5067245;28;20028;-37
2021/10/04 04:17:23;;;;;;;34.20;8.27;;;;;;;;;;5074905;28;20472;-37
2021/10/04 04:19:50;;;;;;;39.33;8.18;;;;;;;;;;5074284;28;20024;-38
2021/10/04 04:22:17;;;;;;;32.65;7.00;;;;;;;;;;5074495;28;20538;-38
2021/10/04 04:24:44;;;;;;;28.38;7.28;;;;;;;;;;5062413;28;20048;-40
2021/10/04 04:27:11;;;;;;;33.22;7.10;;;;;;;;;;5054402;28;20021;-39
2021/10/04 04:29:39;;;;;;;29.88;6.97;;;;;;;;;;5054410;28;20032;-38
2021/10/04 04:32:07;;;;;;;29.17;7.28;;;;;;;;;;5053934;28;20067;-38
2021/10/04 04:34:34;;;;;;;28.00;6.93;;;;;;;;;;5052742;28;20044;-39
2021/10/04 04:37:02;;;;;;;34.47;6.85;;;;;;;;;;5074073;28;20027;-40
2021/10/04 04:39:29;;;;;;;31.15;7.13;;;;;;;;;;5074250;28;20047;-37
2021/10/04 04:41:56;;;;;;;29.75;6.43;;;;;;;;;;5073874;28;20383;-40
2021/10/04 04:44:23;;;;;;;28.48;6.82;;;;;;;;;;5069484;28;20037;-37
2021/10/04 04:46:51;;;;;;;21.52;6.43;;;;;;;;;;5072100;28;20591;-39
2021/10/04 04:49:18;;;;;;;24.27;6.43;;;;;;;;;;5073431;28;20025;-39
2021/10/04 04:51:45;;;;;;;24.08;6.10;;;;;;;;;;5073558;28;20435;-39
2021/10/04 04:54:13;;;;;;;25.40;6.15;;;;;;;;;;5073676;28;20078;-38
2021/10/04 04:56:40;;;;;;;20.88;6.88;;;;;;;;;;5067044;28;20496;-38
2021/10/04 04:59:07;;;;;;;24.60;5.72;;;;;;;;;;5072555;28;20055;-39
2021/10/04 05:01:34;;;;;;;20.55;5.45;;;;;;;;;;5073545;28;20025;-39
2021/10/04 05:04:01;;;;;;;23.77;6.50;;;;;;;;;;5073525;28;20029;-39
2021/10/04 05:06:28;;;;;;;26.40;6.78;;;;;;;;;;5049194;28;20013;-37
2021/10/04 05:08:55;;;;;;;23.85;5.60;;;;;;;;;;5073698;28;20119;-39
2021/10/04 05:11:22;;;;;;;19.25;5.90;;;;;;;;;;5073391;28;20060;-38
2021/10/04 05:13:49;;;;;;;20.02;5.50;;;;;;;;;;5073775;28;20012;-39
2021/10/04 05:16:17;;;;;;;21.25;5.15;;;;;;;;;;5066833;28;20025;-37
2021/10/04 05:18:44;;;;;;;18.80;5.60;;;;;;;;;;5072890;28;20044;-40
2021/10/04 05:21:11;;;;;;;18.15;4.78;;;;;;;;;;5073280;28;20028;-38
2021/10/04 05:23:38;;;;;;;17.45;5.60;;;;;;;;;;5073393;28;20031;-39
2021/10/04 05:26:05;;;;;;;16.45;4.72;;;;;;;;;;5066003;28;20495;-40
2021/10/04 05:28:32;;;;;;;19.00;4.55;;;;;;;;;;5072934;28;20360;-39
2021/10/04 05:30:59;;;;;;;20.85;5.15;;;;;;;;;;5073230;28;20052;-39
2021/10/04 05:33:27;;;;;;;17.42;4.75;;;;;;;;;;5073235;28;20072;-39
2021/10/04 05:35:54;;;;;;;19.25;4.30;;;;;;;;;;5065122;28;20032;-39
2021/10/04 05:38:21;;;;;;;14.88;4.20;;;;;;;;;;5053319;28;20047;-40
2021/10/04 05:40:48;;;;;;;17.38;4.55;;;;;;;;;;5052643;28;20457;-38
2021/10/04 05:43:15;;;;;;;17.40;4.30;;;;;;;;;;5053122;28;20392;-39
2021/10/04 05:45:42;;;;;;;19.10;4.47;;;;;;;;;;5052213;28;20017;-37
2021/10/04 05:48:10;;;;;;;15.07;4.20;;;;;;;;;;5067756;28;20564;-40
2021/10/04 05:50:36;;;;;;;13.88;3.80;;;;;;;;;;5071149;28;20047;-39
2021/10/04 05:53:04;;;;;;;17.10;4.65;;;;;;;;;;5071881;28;20027;-39
2021/10/04 05:55:31;;;;;;;17.08;4.43;;;;;;;;;;5072372;28;20016;-40
2021/10/04 05:57:58;;;;;;;19.73;4.05;;;;;;;;;;5045812;28;20050;-38
2021/10/04 06:00:25;;;;;;;15.90;4.60;;;;;;;;;;5072846;28;20047;-38
2021/10/04 06:02:52;;;;;;;12.90;3.90;;;;;;;;;;5072559;28;20669;-39
2021/10/04 06:05:19;;;;;;;14.00;3.83;;;;;;;;;;5053967;28;20083;-40
2021/10/04 06:07:46;;;;;;;16.55;4.20;;;;;;;;;;5066044;28;20460;-40
2021/10/04 06:10:13;;;;;;;15.15;4.13;;;;;;;;;;5071222;28;20111;-38
2021/10/04 06:12:40;;;;;;;11.25;3.95;;;;;;;;;;5072382;28;20028;-40
2021/10/04 06:15:08;;;;;;;9.65;3.85;;;;;;;;;;5072379;28;20070;-40
2021/10/04 06:17:35;;;;;;;12.70;3.50;;;;;;;;;;5064242;28;20438;-39
2021/10/04 06:20:02;;;;;;;11.43;3.30;;;;;;;;;;5071590;28;20021;-39
2021/10/04 06:22:29;;;;;;;12.25;3.50;;;;;;;;;;5072349;28;20028;-38
2021/10/04 06:24:56;;;;;;;12.07;3.47;;;;;;;;;;5054283;28;20020;-40
2021/10/04 06:27:23;;;;;;;13.25;3.90;;;;;;;;;;5061925;28;20057;-40
2021/10/04 06:29:50;;;;;;;9.93;2.78;;;;;;;;;;5051457;28;20028;-38
2021/10/04 06:32:17;;;;;;;8.30;3.17;;;;;;;;;;5051774;28;20510;-39
2021/10/04 06:34:44;;;;;;;12.50;3.78;;;;;;;;;;5052039;28;20365;-40
2021/10/04 06:37:11;;;;;;;11.23;3.90;;;;;;;;;;5050365;28;20044;-37
2021/10/04 06:39:38;;;;;;;11.48;3.38;;;;;;;;;;5069906;28;20074;-39
2021/10/04 06:42:05;;;;;;;9.98;3.20;;;;;;;;;;5063558;28;20028;-40
2021/10/04 06:44:32;;;;;;;16.50;3.60;;;;;;;;;;5072070;28;20459;-39
2021/10/04 06:47:00;;;;;;;10.75;3.42;;;;;;;;;;5070939;28;20070;-37
2021/10/04 06:49:27;;;;;;;7.70;2.63;;;;;;;;;;5050368;28;20072;-39
2021/10/04 06:51:54;;;;;;;9.80;3.22;;;;;;;;;;5049988;28;20132;-39
2021/10/04 06:54:21;;;;;;;14.18;2.85;;;;;;;;;;5051845;28;20025;-39
2021/10/04 06:56:48;;;;;;;8.98;2.60;;;;;;;;;;5051466;28;20024;-39
2021/10/04 06:59:15;;;;;;;8.85;2.70;;;;;;;;;;5059960;28;20017;-39
2021/10/04 07:01:43;;;;;;;8.15;2.85;;;;;;;;;;5071769;28;20020;-40
2021/10/04 07:04:10;;;;;;;7.15;3.00;;;;;;;;;;5071254;28;20388;-40
2021/10/04 07:06:36;;;;;;;6.60;2.17;;;;;;;;;;5053540;28;20056;-39
2021/10/04 07:09:04;;;;;;;10.05;3.50;;;;;;;;;;5046625;28;20032;-40
2021/10/04 07:11:31;;;;;;;10.20;2.83;;;;;;;;;;5071082;28;20491;-39
2021/10/04 07:13:58;;;;;;;6.45;2.60;;;;;;;;;;5071600;28;20353;-37
2021/10/04 07:16:25;;;;;;;5.68;2.70;;;;;;;;;;5071028;28;20081;-39
2021/10/04 07:18:52;;;;;;;7.07;2.65;;;;;;;;;;5059130;28;20469;-40
2021/10/04 07:21:19;;;;;;;9.15;2.65;;;;;;;;;;5051186;28;20139;-39
2021/10/04 07:23:46;;;;;;;10.20;2.63;;;;;;;;;;5055403;28;20044;-40
2021/10/04 07:26:13;;;;;;;8.13;2.15;;;;;;;;;;5058732;28;20111;-39
2021/10/04 07:28:41;;;;;;;5.75;2.10;;;;;;;;;;5062775;28;20461;-39
2021/10/04 07:31:08;;;;;;;14.38;2.67;;;;;;;;;;5074614;28;20040;-40
2021/10/04 07:33:35;;;;;;;7.10;2.45;;;;;;;;;;5075765;28;20029;-38
2021/10/04 07:36:06;;;;;;;8.05;2.75;;;;;;;;;;5075386;28;20103;-39
2021/10/04 07:38:34;;;;;;;8.50;2.60;;;;;;;;;;5070433;28;20067;-37
2021/10/04 07:41:01;;;;;;;8.82;2.58;;;;;;;;;;5054003;28;20036;-39
2021/10/04 07:43:28;;;;;;;9.93;2.63;;;;;;;;;;5055528;28;20021;-39
2021/10/04 07:45:55;;;;;;;5.32;2.30;;;;;;;;;;5055247;28;20071;-39
2021/10/04 07:48:22;;;;;;;6.03;2.30;;;;;;;;;;5055101;28;20104;-40
2021/10/04 07:50:49;;;;;;;6.55;2.20;;;;;;;;;;5052002;28;20051;-39
2021/10/04 07:53:16;;;;;;;6.40;1.83;;;;;;;;;;5055329;28;20021;-39
2021/10/04 07:55:43;;;;;;;9.50;2.50;;;;;;;;;;5055079;28;20511;-40
2021/10/04 07:58:11;;;;;;;8.82;2.00;;;;;;;;;;5054518;28;20021;-39
2021/10/04 08:00:38;;;;;;;8.77;2.72;;;;;;;;;;5053133;28;20465;-39
2021/10/04 08:03:05;;;;;;;6.57;2.13;;;;;;;;;;5055104;28;20021;-38
2021/10/04 08:05:33;;;;;;;6.32;2.00;;;;;;;;;;5054853;28;20029;-39
2021/10/04 08:08:00;;;;;;;4.95;2.10;;;;;;;;;;5036156;28;20067;-39
2021/10/04 08:10:30;;;;;;;6.63;2.10;;;;;;;;;;5059176;28;20056;-39
2021/10/04 08:12:57;;;;;;;5.88;1.83;;;;;;;;;;5074476;28;20534;-39
2021/10/04 08:15:24;;;;;;;7.30;2.13;;;;;;;;;;5074830;28;20024;-39
2021/10/04 08:17:51;;;;;;;6.03;2.08;;;;;;;;;;5074584;28;20032;-39
2021/10/04 08:20:18;;;;;;;8.45;2.05;;;;;;;;;;5061495;28;20024;-39
2021/10/04 08:22:45;;;;;;;5.38;1.92;;;;;;;;;;5072333;28;20031;-38
2021/10/04 08:25:12;;;;;;;7.15;2.10;;;;;;;;;;5074584;28;20021;-39
2021/10/04 08:27:40;;;;;;;5.63;1.70;;;;;;;;;;5073533;28;20756;-39
2021/10/04 08:30:07;;;;;;;6.00;1.98;;;;;;;;;;5066733;28;20520;-39
2021/10/04 08:32:35;;;;;;;4.15;1.70;;;;;;;;;;5052140;28;20059;-40
2021/10/04 08:35:04;;;;;;;7.05;1.83;;;;;;;;;;5074323;28;20078;-38
2021/10/04 08:37:35;;;;;;;5.32;1.92;;;;;;;;;;5074234;28;20023;-40
2021/10/04 08:40:06;;;;;;;4.68;1.60;;;;;;;;;;5067962;28;20061;-38
2021/10/04 08:42:34;;;;;;;5.15;2.05;;;;;;;;;;5069489;28;20024;-39
2021/10/04 08:45:01;;;;;;;9.07;1.67;;;;;;;;;;5074462;28;20112;-39
2021/10/04 08:47:28;;;;;;;4.47;1.67;;;;;;;;;;5073807;28;20067;-39
2021/10/04 08:49:55;;;;;;;3.70;1.70;;;;;;;;;;5072159;28;20044;-39
2021/10/04 08:52:22;;;;;;;4.53;1.77;;;;;;;;;;5069088;28;20640;-38
2021/10/04 08:54:49;;;;;;;3.78;1.73;;;;;;;;;;5072739;28;20028;-39
2021/10/04 08:57:16;;;;;;;4.00;1.60;;;;;;;;;;5073952;28;20020;-38
2021/10/04 08:59:43;;;;;;;5.85;1.80;;;;;;;;;;5073331;28;20275;-39
2021/10/04 09:02:30;;;;;;;4.13;1.77;;;;;;;;;;5061004;28;20099;-39
2021/10/04 09:05:11;;;;;;;6.40;1.90;;;;;;;;;;5074213;28;20032;-37
2021/10/04 09:07:39;;;;;;;4.45;1.52;;;;;;;;;;5074110;28;20099;-37
2021/10/04 09:10:08;;;;;;;6.85;2.03;;;;;;;;;;5072884;28;20036;-37
2021/10/04 09:12:52;;;;;;;5.18;1.60;;;;;;;;;;5068673;28;20025;-38
2021/10/04 09:15:23;;;;;;;4.20;1.70;;;;;;;;;;5073607;28;20104;-38
2021/10/04 09:17:50;;;;;;;4.32;2.03;;;;;;;;;;5073212;28;20021;-38
2021/10/04 09:20:18;;;;;;;4.80;1.58;;;;;;;;;;5073166;28;20472;-38
2021/10/04 09:22:45;;;;;;;5.13;1.75;;;;;;;;;;5061349;28;20410;-38
2021/10/04 09:25:12;;;;;;;4.63;1.60;;;;;;;;;;5073801;28;20031;-39
2021/10/04 09:27:43;;;;;;;4.65;1.50;;;;;;;;;;5073619;28;20024;-39
2021/10/04 09:30:16;;;;;;;3.80;1.90;;;;;;;;;;5072775;28;20383;-38
2021/10/04 09:32:42;;;;;;;;;;;;;;;;;;5068920;28;20032;-37
2021/10/04 09:35:21;;;;;;;4.88;1.73;;;;;;;;;;5073614;28;19981;-38
2021/10/04 09:37:50;;;;;;;3.33;1.45;;;;;;;;;;5073656;28;20094;-39
2021/10/04 09:40:31;;;;;;;5.88;1.38;;;;;;;;;;5072674;28;20024;-40
2021/10/04 09:42:59;;;;;;;3.40;1.42;;;;;;;;;;5036871;28;20472;-40
2021/10/04 09:45:27;;;;;;;4.32;1.40;;;;;;;;;;5052531;28;20033;-40
2021/10/04 09:47:55;;;;;;;6.45;1.35;;;;;;;;;;5053176;28;20428;-39
2021/10/04 09:50:32;;;;;;;3.55;1.42;;;;;;;;;;5055844;28;20037;-39
2021/10/04 09:53:00;;;;;;;3.47;1.55;;;;;;;;;;5067207;28;20056;-38
2021/10/04 09:55:35;;;;;;;3.53;1.55;;;;;;;;;;5073059;28;20020;-39
2021/10/04 09:58:02;;;;;;;4.50;1.50;;;;;;;;;;5072881;28;20049;-40
2021/10/04 10:00:35;;;;;;;2.90;1.42;;;;;;;;;;5072349;28;20020;-39
2021/10/04 10:03:03;;;;;;;4.03;1.35;;;;;;;;;;5061575;28;20420;-40
2021/10/04 10:05:31;;;;;;;9.23;1.50;;;;;;;;;;5073034;28;20021;-38
2021/10/04 10:07:58;;;;;;;2.85;1.30;;;;;;;;;;5072546;28;20365;-38
2021/10/04 10:10:26;;;;;;;8.82;1.42;;;;;;;;;;5071991;28;20032;-38
2021/10/04 10:12:53;;;;;;;3.33;1.10;;;;;;;;;;5066240;28;20111;-38
2021/10/04 10:15:24;;;;;;;3.42;1.10;;;;;;;;;;5072410;28;20024;-37
2021/10/04 10:17:53;;;;;;;4.35;1.40;;;;;;;;;;5072538;28;20059;-38
2021/10/04 10:20:21;;;;;;;5.75;1.33;;;;;;;;;;5071752;28;20130;-40
2021/10/04 10:22:53;;;;;;;3.40;1.23;;;;;;;;;;5064162;28;20035;-40
2021/10/04 10:25:27;;;;;;;8.57;1.20;;;;;;;;;;5066629;28;20066;-40
2021/10/04 10:27:54;;;;;;;7.63;1.25;;;;;;;;;;5072502;28;20472;-40
2021/10/04 10:30:23;;;;;;;4.80;1.08;;;;;;;;;;5071764;28;20028;-38
2021/10/04 10:32:50;;;;;;;4.18;1.42;;;;;;;;;;5068331;28;20048;-39
2021/10/04 10:35:17;;;;;;;3.78;1.38;;;;;;;;;;5071763;28;20044;-39
2021/10/04 10:37:46;;;;;;;5.38;1.40;;;;;;;;;;5072108;28;20029;-40
2021/10/04 10:40:18;;;;;;;4.25;1.20;;;;;;;;;;5071647;28;20032;-40
2021/10/04 10:43:00;;;;;;;4.72;1.10;;;;;;;;;;5050801;28;20024;-38
2021/10/04 10:45:37;;;;;;;5.95;1.20;;;;;;;;;;5070791;28;20448;-39
2021/10/04 10:48:05;;;;;;;3.55;1.00;;;;;;;;;;5071833;28;20063;-39
2021/10/04 10:50:39;;;;;;;3.88;1.20;;;;;;;;;;5070522;28;20508;-40
2021/10/04 10:53:08;;;;;;;3.92;0.80;;;;;;;;;;5067707;28;20037;-37
2021/10/04 10:55:40;;;;;;;4.72;1.38;;;;;;;;;;5069573;28;20017;-40
2021/10/04 10:58:18;;;;;;;13.98;2.10;;;;;;;;;;5071925;28;20031;-41
2021/10/04 11:00:46;;;;;;;6.47;1.58;;;;;;;;;;5071695;28;20100;-40
2021/10/04 11:03:18;;;;;;;8.15;1.60;;;;;;;;;;5071409;28;20396;-41
2021/10/04 11:05:45;;;;;;;;;;;;;;;;;;5072863;28;20031;-40
2021/10/04 11:08:17;;;;;;;4.53;1.08;;;;;;;;;;5054010;28;20249;-40
2021/10/04 11:10:50;;;;;;;5.95;1.20;;;;;;;;;;5071972;28;20043;-39
2021/10/04 11:13:30;;;;;;;6.47;1.35;;;;;;;;;;5070813;28;20506;-39
2021/10/04 11:16:17;;;;;;;7.50;1.20;;;;;;;;;;5072325;28;20033;-40
2021/10/04 11:18:45;;;;;;;6.78;1.38;;;;;;;;;;5055501;28;20043;-40
2021/10/04 11:21:14;;;;;;;5.53;1.20;;;;;;;;;;5071495;28;20029;-39
2021/10/04 11:23:45;;;;;;;3.13;1.00;;;;;;;;;;5070887;28;20112;-37
2021/10/04 11:26:14;;;;;;;7.07;1.48;;;;;;;;;;5071386;28;20021;-39
2021/10/04 11:28:44;;;;;;;4.97;1.30;;;;;;;;;;5071949;28;20028;-38
2021/10/04 11:31:15;;;;;;;6.78;1.20;;;;;;;;;;5071565;28;20040;-38
2021/10/04 11:33:59;;;;;;;7.05;1.10;;;;;;;;;;5069649;28;20021;-36
2021/10/04 11:36:46;;;;;;;4.32;1.05;;;;;;;;;;5071839;28;20047;-36
2021/10/04 11:39:14;;;;;;;89.63;7.15;;;;;;;;;;5060604;28;20480;-39
2021/10/04 11:41:48;;;;;;;7.72;1.02;;;;;;;;;;5069350;28;20472;-39
2021/10/04 11:44:20;;;;;;;23.67;1.88;;;;;;;;;;5069942;28;20133;-41
2021/10/04 11:46:49;;;;;;;13.90;1.30;;;;;;;;;;5071163;28;20100;-41
2021/10/04 11:49:18;;;;;;;12.50;1.42;;;;;;;;;;5070935;28;20431;-43
2021/10/04 11:51:50;;;;;;;9.18;1.40;;;;;;;;;;5069564;28;20076;-40
2021/10/04 11:54:30;;;;;;;4.68;1.23;;;;;;;;;;5071069;28;20040;-38
2021/10/04 11:56:57;;;;;;;6.93;1.08;;;;;;;;;;5050746;28;20558;-38
2021/10/04 11:59:24;;;;;;;10.52;1.08;;;;;;;;;;5058537;28;20025;-38
2021/10/04 12:01:52;;;;;;;11.57;1.20;;;;;;;;;;5069409;28;20035;-39
2021/10/04 12:04:20;;;;;;;6.22;1.20;;;;;;;;;;5069786;28;20016;-39
2021/10/04 12:06:48;;;;;;;15.85;1.60;;;;;;;;;;5069530;28;20096;-40
2021/10/04 12:09:22;;;;;;;8.48;1.02;;;;;;;;;;5073507;28;20016;-38
2021/10/04 12:11:56;;;;;;;7.38;1.30;;;;;;;;;;5073700;28;20602;-37
2021/10/04 12:14:25;;;;;;;9.52;1.20;;;;;;;;;;5073474;28;20021;-38
2021/10/04 12:16:52;;;;;;;15.32;1.58;;;;;;;;;;5074344;28;20078;-39
2021/10/04 12:19:20;;;;;;;5.85;1.20;;;;;;;;;;5074590;28;20021;-37
2021/10/04 12:21:50;;;;;;;14.07;1.60;;;;;;;;;;5074448;28;20082;-39
2021/10/04 12:24:20;;;;;;;10.35;1.75;;;;;;;;;;5072761;28;20074;-40
2021/10/04 12:26:47;;;;;;;14.27;1.30;;;;;;;;;;5074993;28;20033;-40
2021/10/04 12:29:26;;;;;;;14.10;1.77;;;;;;;;;;5074730;28;20017;-38
2021/10/04 12:31:53;;;;;;;8.65;1.40;;;;;;;;;;5074046;28;20037;-47
2021/10/04 12:34:24;;;;;;;9.77;1.45;;;;;;;;;;5072889;28;20143;-43
2021/10/04 12:36:51;;;;;;;7.72;1.27;;;;;;;;;;5074390;28;20078;-41
2021/10/04 12:39:19;;;;;;;10.23;1.20;;;;;;;;;;5074792;28;20016;-41
2021/10/04 12:41:56;;;;;;;8.40;1.20;;;;;;;;;;5073587;28;20029;-42
2021/10/04 12:44:23;;;;;;;9.52;1.05;;;;;;;;;;5073964;28;20047;-43
2021/10/04 12:47:02;;;;;;;8.07;1.38;;;;;;;;;;5072353;28;20123;-38
2021/10/04 12:49:32;;;;;;;8.32;1.40;;;;;;;;;;5074397;28;20070;-44
2021/10/04 12:52:00;;;;;;;8.07;0.88;;;;;;;;;;5073662;28;20059;-39
2021/10/04 12:54:34;;;;;;;7.00;0.93;;;;;;;;;;5072608;28;20107;-41
2021/10/04 12:57:01;;;;;;;11.07;1.10;;;;;;;;;;5072138;28;20035;-42
2021/10/04 12:59:29;;;;;;;6.63;1.00;;;;;;;;;;5054181;28;20087;-41
2021/10/04 13:01:58;;;;;;;7.25;1.40;;;;;;;;;;5058945;28;20021;-36
2021/10/04 13:04:38;;;;;;;6.80;1.15;;;;;;;;;;5068379;28;20078;-39
2021/10/04 13:07:07;;;;;;;8.63;1.20;;;;;;;;;;5072960;28;20376;-42
2021/10/04 13:09:35;;;;;;;5.68;1.00;;;;;;;;;;5073794;28;20078;-41
2021/10/04 13:12:02;;;;;;;4.78;0.82;;;;;;;;;;5073805;28;20115;-39
2021/10/04 13:14:29;;;;;;;7.57;0.90;;;;;;;;;;5073639;28;20020;-40
2021/10/04 13:16:56;;;;;;;8.27;1.15;;;;;;;;;;5072926;28;20383;-40
2021/10/04 13:19:23;;;;;;;5.13;0.80;;;;;;;;;;5071616;28;20078;-42
2021/10/04 13:21:50;;;;;;;16.48;1.80;;;;;;;;;;5054085;28;20024;-40
2021/10/04 13:24:18;;;;;;;11.13;1.40;;;;;;;;;;5072770;28;20020;-40
2021/10/04 13:26:45;;;;;;;8.65;1.50;;;;;;;;;;5072016;28;20063;-41
2021/10/04 13:29:14;;;;;;;11.20;1.55;;;;;;;;;;5072205;28;20020;-39
2021/10/04 13:31:41;;;;;;;14.75;1.95;;;;;;;;;;5073325;28;20181;-40
2021/10/04 13:34:10;;;;;;;8.02;1.10;;;;;;;;;;5072327;28;20107;-39
2021/10/04 13:36:37;;;;;;;11.30;1.33;;;;;;;;;;5072269;28;20025;-39
2021/10/04 13:39:06;;;;;;;8.18;1.10;;;;;;;;;;5072235;28;20103;-37
2021/10/04 13:41:33;;;;;;;6.28;0.85;;;;;;;;;;5072734;28;20392;-39
2021/10/04 13:44:00;;;;;;;10.38;1.10;;;;;;;;;;5072005;28;20024;-38
2021/10/04 13:46:28;;;;;;;7.07;1.45;;;;;;;;;;5071734;28;20036;-38
2021/10/04 13:48:55;;;;;;;6.53;0.95;;;;;;;;;;5055177;28;20100;-37
2021/10/04 13:51:23;;;;;;;10.00;1.15;;;;;;;;;;5063354;28;20167;-39
2021/10/04 13:53:50;;;;;;;12.73;1.30;;;;;;;;;;5065490;28;20032;-39
2021/10/04 13:56:21;;;;;;;9.13;1.08;;;;;;;;;;5063600;28;20027;-42
2021/10/04 13:58:49;;;;;;;9.52;0.98;;;;;;;;;;5063579;28;20074;-39
2021/10/04 14:01:18;;;;;;;12.60;1.10;;;;;;;;;;5060259;28;20060;-41
2021/10/04 14:03:45;;;;;;;3.65;0.98;;;;;;;;;;5060536;28;20127;-42
2021/10/04 14:06:12;;;;;;;10.57;1.23;;;;;;;;;;5061403;28;20033;-38
2021/10/04 14:08:40;;;;;;;26.42;2.65;;;;;;;;;;5055989;28;20029;-36
2021/10/04 14:11:07;;;;;;;10.02;1.48;;;;;;;;;;5066425;28;20028;-40
2021/10/04 14:13:34;;;;;;;11.90;1.33;;;;;;;;;;5058430;28;20441;-40
2021/10/04 14:16:02;;;;;;;11.90;1.13;;;;;;;;;;5060874;28;20044;-39
2021/10/04 14:18:29;;;;;;;15.98;1.23;;;;;;;;;;5052336;28;20079;-39
2021/10/04 14:20:56;;;;;;;9.43;1.35;;;;;;;;;;5050782;28;20047;-37
2021/10/04 14:23:23;;;;;;;11.65;1.33;;;;;;;;;;5050377;28;20484;-38
2021/10/04 14:25:50;;;;;;;8.00;1.08;;;;;;;;;;5064508;28;20029;-41
2021/10/04 14:28:17;;;;;;;8.85;0.90;;;;;;;;;;5053692;28;20025;-37
2021/10/04 14:30:44;;;;;;;16.65;1.90;;;;;;;;;;5068661;28;20037;-38
2021/10/04 14:33:11;;;;;;;8.40;0.88;;;;;;;;;;5064000;28;20131;-42
2021/10/04 14:35:39;;;;;;;12.32;1.30;;;;;;;;;;5051824;28;20024;-42
2021/10/04 14:38:06;;;;;;;10.80;1.20;;;;;;;;;;5070998;28;20039;-40